TAF KBIS
KBIS 280530Z 2806/2906 VRB04KT P6SM SCT250 FM281700 16010KT P6SM BKN080 FM282100 18011G19KT P6SM OVC050 FM290200 22008KT P6SM BKN100 WS010/29035KT=
METAR KBIS
WC KBIS
WS KBIS
WV KBIS